Terminal Aerodrome Forecast
Issued by NWS Charleston, SC

Home | Current Version | Previous Version | Text Only | Print | Product List | Glossary On
Versions: 1 2 3 4 5 6 7 8 9 10 11 12
501
FTUS42 KCHS 190520
TAFSAV
TAF
KSAV 190520Z 1906/2006 23010KT P6SM FEW250
     FM191500 27014G20KT P6SM SCT050
     FM192300 33007KT P6SM SKC=

USA.gov is the U.S. government's official web portal to all federal, state and local government web resources and services.